sensor_id;sensor_type;location;lat;lon;timestamp;P1;durP1;ratioP1;P2;durP2;ratioP2
14883;SDS011;7534;50.762;7.000;2023-04-09T00:00:07;28.97;;;24.53;;
14883;SDS011;7534;50.762;7.000;2023-04-09T00:02:35;29.47;;;24.00;;
14883;SDS011;7534;50.762;7.000;2023-04-09T00:05:01;29.67;;;24.00;;
14883;SDS011;7534;50.762;7.000;2023-04-09T00:07:27;29.33;;;23.50;;
14883;SDS011;7534;50.762;7.000;2023-04-09T00:09:53;31.17;;;24.50;;
14883;SDS011;7534;50.762;7.000;2023-04-09T00:12:21;30.80;;;25.00;;
14883;SDS011;7534;50.762;7.000;2023-04-09T00:14:47;30.60;;;24.73;;
14883;SDS011;7534;50.762;7.000;2023-04-09T00:17:14;29.63;;;23.87;;
14883;SDS011;7534;50.762;7.000;2023-04-09T00:19:43;29.17;;;24.47;;
14883;SDS011;7534;50.762;7.000;2023-04-09T00:22:09;30.20;;;24.17;;
14883;SDS011;7534;50.762;7.000;2023-04-09T00:24:35;33.70;;;26.20;;
14883;SDS011;7534;50.762;7.000;2023-04-09T00:27:01;31.50;;;25.00;;
14883;SDS011;7534;50.762;7.000;2023-04-09T00:29:26;34.83;;;25.53;;
14883;SDS011;7534;50.762;7.000;2023-04-09T00:31:53;33.70;;;26.30;;
14883;SDS011;7534;50.762;7.000;2023-04-09T00:34:19;34.33;;;25.87;;
14883;SDS011;7534;50.762;7.000;2023-04-09T00:36:44;31.13;;;25.13;;
14883;SDS011;7534;50.762;7.000;2023-04-09T00:39:10;31.93;;;25.50;;
14883;SDS011;7534;50.762;7.000;2023-04-09T00:41:36;31.43;;;24.50;;
14883;SDS011;7534;50.762;7.000;2023-04-09T00:44:01;32.67;;;26.37;;
14883;SDS011;7534;50.762;7.000;2023-04-09T00:46:30;31.43;;;25.00;;
14883;SDS011;7534;50.762;7.000;2023-04-09T00:48:56;30.70;;;25.50;;
14883;SDS011;7534;50.762;7.000;2023-04-09T00:51:22;35.73;;;28.07;;
14883;SDS011;7534;50.762;7.000;2023-04-09T00:53:48;37.13;;;28.50;;
14883;SDS011;7534;50.762;7.000;2023-04-09T00:56:14;35.70;;;27.30;;
14883;SDS011;7534;50.762;7.000;2023-04-09T00:58:43;33.53;;;27.03;;
14883;SDS011;7534;50.762;7.000;2023-04-09T01:01:10;32.43;;;26.27;;
14883;SDS011;7534;50.762;7.000;2023-04-09T01:03:37;36.30;;;27.90;;
14883;SDS011;7534;50.762;7.000;2023-04-09T01:06:11;36.30;;;27.63;;
14883;SDS011;7534;50.762;7.000;2023-04-09T01:09:34;38.23;;;28.90;;
14883;SDS011;7534;50.762;7.000;2023-04-09T01:11:58;36.73;;;28.40;;
14883;SDS011;7534;50.762;7.000;2023-04-09T01:18:12;38.77;;;29.17;;
14883;SDS011;7534;50.762;7.000;2023-04-09T01:20:38;35.97;;;27.43;;
14883;SDS011;7534;50.762;7.000;2023-04-09T01:23:22;36.40;;;28.33;;
14883;SDS011;7534;50.762;7.000;2023-04-09T01:26:36;39.17;;;29.17;;
14883;SDS011;7534;50.762;7.000;2023-04-09T01:29:20;39.80;;;29.57;;
14883;SDS011;7534;50.762;7.000;2023-04-09T01:31:47;37.27;;;27.93;;
14883;SDS011;7534;50.762;7.000;2023-04-09T01:34:15;38.17;;;28.23;;
14883;SDS011;7534;50.762;7.000;2023-04-09T01:36:47;38.77;;;27.57;;
14883;SDS011;7534;50.762;7.000;2023-04-09T01:39:20;32.97;;;25.93;;
14883;SDS011;7534;50.762;7.000;2023-04-09T01:41:47;36.53;;;27.77;;
14883;SDS011;7534;50.762;7.000;2023-04-09T01:44:14;39.27;;;28.37;;
14883;SDS011;7534;50.762;7.000;2023-04-09T01:46:42;35.43;;;27.53;;
14883;SDS011;7534;50.762;7.000;2023-04-09T01:49:10;37.47;;;27.40;;
14883;SDS011;7534;50.762;7.000;2023-04-09T01:51:37;38.03;;;27.93;;
14883;SDS011;7534;50.762;7.000;2023-04-09T01:54:03;35.63;;;27.70;;
14883;SDS011;7534;50.762;7.000;2023-04-09T01:56:41;33.07;;;25.80;;
14883;SDS011;7534;50.762;7.000;2023-04-09T01:59:09;36.20;;;27.70;;
14883;SDS011;7534;50.762;7.000;2023-04-09T02:01:57;36.80;;;28.37;;
14883;SDS011;7534;50.762;7.000;2023-04-09T02:04:32;37.80;;;27.83;;
14883;SDS011;7534;50.762;7.000;2023-04-09T02:07:09;36.90;;;28.10;;
14883;SDS011;7534;50.762;7.000;2023-04-09T02:09:50;38.83;;;28.07;;
14883;SDS011;7534;50.762;7.000;2023-04-09T02:12:18;39.07;;;29.23;;
14883;SDS011;7534;50.762;7.000;2023-04-09T02:14:45;37.10;;;28.50;;
14883;SDS011;7534;50.762;7.000;2023-04-09T02:17:16;38.33;;;29.67;;
14883;SDS011;7534;50.762;7.000;2023-04-09T02:19:44;36.97;;;27.63;;
14883;SDS011;7534;50.762;7.000;2023-04-09T02:22:12;37.43;;;27.80;;
14883;SDS011;7534;50.762;7.000;2023-04-09T02:24:40;39.63;;;28.63;;
14883;SDS011;7534;50.762;7.000;2023-04-09T02:27:06;38.10;;;28.80;;
14883;SDS011;7534;50.762;7.000;2023-04-09T02:29:32;35.80;;;27.70;;
14883;SDS011;7534;50.762;7.000;2023-04-09T02:31:58;37.40;;;28.67;;
14883;SDS011;7534;50.762;7.000;2023-04-09T02:34:24;37.27;;;27.37;;
14883;SDS011;7534;50.762;7.000;2023-04-09T02:36:50;37.60;;;28.43;;
14883;SDS011;7534;50.762;7.000;2023-04-09T02:39:16;35.77;;;27.23;;
14883;SDS011;7534;50.762;7.000;2023-04-09T02:41:42;38.13;;;28.13;;
14883;SDS011;7534;50.762;7.000;2023-04-09T02:44:09;37.50;;;28.47;;
14883;SDS011;7534;50.762;7.000;2023-04-09T02:46:35;39.30;;;27.80;;
14883;SDS011;7534;50.762;7.000;2023-04-09T02:49:00;36.80;;;27.63;;
14883;SDS011;7534;50.762;7.000;2023-04-09T02:51:26;39.30;;;28.30;;
14883;SDS011;7534;50.762;7.000;2023-04-09T02:53:52;41.53;;;29.53;;
14883;SDS011;7534;50.762;7.000;2023-04-09T02:56:17;39.83;;;29.43;;
14883;SDS011;7534;50.762;7.000;2023-04-09T02:58:43;38.07;;;28.83;;
14883;SDS011;7534;50.762;7.000;2023-04-09T03:01:09;41.57;;;28.53;;
14883;SDS011;7534;50.762;7.000;2023-04-09T03:03:35;40.93;;;29.17;;
14883;SDS011;7534;50.762;7.000;2023-04-09T03:06:03;42.43;;;30.33;;
14883;SDS011;7534;50.762;7.000;2023-04-09T03:08:28;44.33;;;30.53;;
14883;SDS011;7534;50.762;7.000;2023-04-09T03:10:54;45.10;;;30.00;;
14883;SDS011;7534;50.762;7.000;2023-04-09T03:13:20;41.57;;;30.37;;
14883;SDS011;7534;50.762;7.000;2023-04-09T03:15:49;43.40;;;30.40;;
14883;SDS011;7534;50.762;7.000;2023-04-09T03:18:17;41.80;;;29.30;;
14883;SDS011;7534;50.762;7.000;2023-04-09T03:20:42;43.03;;;30.20;;
14883;SDS011;7534;50.762;7.000;2023-04-09T03:23:09;44.37;;;30.43;;
14883;SDS011;7534;50.762;7.000;2023-04-09T03:25:35;43.67;;;30.50;;
14883;SDS011;7534;50.762;7.000;2023-04-09T03:28:01;43.77;;;30.73;;
14883;SDS011;7534;50.762;7.000;2023-04-09T03:30:27;43.43;;;29.80;;
14883;SDS011;7534;50.762;7.000;2023-04-09T03:32:53;46.00;;;30.37;;
14883;SDS011;7534;50.762;7.000;2023-04-09T03:35:19;44.43;;;30.30;;
14883;SDS011;7534;50.762;7.000;2023-04-09T03:37:45;46.60;;;31.20;;
14883;SDS011;7534;50.762;7.000;2023-04-09T03:40:11;47.00;;;30.90;;
14883;SDS011;7534;50.762;7.000;2023-04-09T03:42:37;45.43;;;31.47;;
14883;SDS011;7534;50.762;7.000;2023-04-09T03:45:03;44.27;;;31.07;;
14883;SDS011;7534;50.762;7.000;2023-04-09T03:47:30;47.23;;;31.23;;
14883;SDS011;7534;50.762;7.000;2023-04-09T03:49:57;45.70;;;30.43;;
14883;SDS011;7534;50.762;7.000;2023-04-09T03:52:22;45.30;;;29.87;;
14883;SDS011;7534;50.762;7.000;2023-04-09T03:54:48;42.53;;;29.80;;
14883;SDS011;7534;50.762;7.000;2023-04-09T03:57:13;39.90;;;29.70;;
14883;SDS011;7534;50.762;7.000;2023-04-09T03:59:39;44.13;;;30.13;;
14883;SDS011;7534;50.762;7.000;2023-04-09T04:02:05;42.53;;;30.70;;
14883;SDS011;7534;50.762;7.000;2023-04-09T04:04:31;44.77;;;30.67;;
14883;SDS011;7534;50.762;7.000;2023-04-09T04:06:57;44.30;;;30.13;;
14883;SDS011;7534;50.762;7.000;2023-04-09T04:09:22;43.90;;;29.80;;
14883;SDS011;7534;50.762;7.000;2023-04-09T04:11:48;45.00;;;31.27;;
14883;SDS011;7534;50.762;7.000;2023-04-09T04:14:14;44.50;;;30.20;;
14883;SDS011;7534;50.762;7.000;2023-04-09T04:16:40;46.90;;;30.47;;
14883;SDS011;7534;50.762;7.000;2023-04-09T04:19:16;45.07;;;30.47;;
14883;SDS011;7534;50.762;7.000;2023-04-09T04:21:42;45.73;;;30.53;;
14883;SDS011;7534;50.762;7.000;2023-04-09T04:24:08;43.87;;;30.33;;
14883;SDS011;7534;50.762;7.000;2023-04-09T04:26:34;44.27;;;31.70;;
14883;SDS011;7534;50.762;7.000;2023-04-09T04:28:59;44.93;;;30.07;;
14883;SDS011;7534;50.762;7.000;2023-04-09T04:31:25;42.97;;;31.23;;
14883;SDS011;7534;50.762;7.000;2023-04-09T04:33:50;43.23;;;29.60;;
14883;SDS011;7534;50.762;7.000;2023-04-09T04:36:16;44.07;;;30.07;;
14883;SDS011;7534;50.762;7.000;2023-04-09T04:38:42;43.13;;;28.80;;
14883;SDS011;7534;50.762;7.000;2023-04-09T04:41:08;46.90;;;30.70;;
14883;SDS011;7534;50.762;7.000;2023-04-09T04:43:35;43.70;;;30.00;;
14883;SDS011;7534;50.762;7.000;2023-04-09T04:46:06;44.53;;;30.57;;
14883;SDS011;7534;50.762;7.000;2023-04-09T04:48:35;44.73;;;30.57;;
14883;SDS011;7534;50.762;7.000;2023-04-09T04:51:01;44.30;;;29.87;;
14883;SDS011;7534;50.762;7.000;2023-04-09T04:53:26;44.10;;;30.60;;
14883;SDS011;7534;50.762;7.000;2023-04-09T04:55:52;43.23;;;28.90;;
14883;SDS011;7534;50.762;7.000;2023-04-09T04:58:20;40.93;;;29.10;;
14883;SDS011;7534;50.762;7.000;2023-04-09T05:00:46;39.87;;;28.50;;
14883;SDS011;7534;50.762;7.000;2023-04-09T05:03:18;42.80;;;27.00;;
14883;SDS011;7534;50.762;7.000;2023-04-09T05:05:43;38.00;;;27.23;;
14883;SDS011;7534;50.762;7.000;2023-04-09T05:08:10;37.97;;;27.20;;
14883;SDS011;7534;50.762;7.000;2023-04-09T05:10:35;38.50;;;28.20;;
14883;SDS011;7534;50.762;7.000;2023-04-09T05:13:04;37.07;;;27.53;;
14883;SDS011;7534;50.762;7.000;2023-04-09T05:15:36;38.53;;;26.57;;
14883;SDS011;7534;50.762;7.000;2023-04-09T05:18:03;40.50;;;27.40;;
14883;SDS011;7534;50.762;7.000;2023-04-09T05:20:29;40.03;;;27.80;;
14883;SDS011;7534;50.762;7.000;2023-04-09T05:22:55;36.80;;;27.13;;
14883;SDS011;7534;50.762;7.000;2023-04-09T05:25:21;38.90;;;27.07;;
14883;SDS011;7534;50.762;7.000;2023-04-09T05:27:47;35.97;;;26.73;;
14883;SDS011;7534;50.762;7.000;2023-04-09T05:30:13;37.37;;;26.47;;
14883;SDS011;7534;50.762;7.000;2023-04-09T05:32:38;38.83;;;27.27;;
14883;SDS011;7534;50.762;7.000;2023-04-09T05:35:04;38.47;;;26.17;;
14883;SDS011;7534;50.762;7.000;2023-04-09T05:37:30;36.93;;;26.80;;
14883;SDS011;7534;50.762;7.000;2023-04-09T05:39:56;38.73;;;26.67;;
14883;SDS011;7534;50.762;7.000;2023-04-09T05:42:21;33.83;;;25.73;;
14883;SDS011;7534;50.762;7.000;2023-04-09T05:44:47;34.20;;;27.50;;
14883;SDS011;7534;50.762;7.000;2023-04-09T05:47:13;33.27;;;25.83;;
14883;SDS011;7534;50.762;7.000;2023-04-09T05:49:38;34.43;;;25.77;;
14883;SDS011;7534;50.762;7.000;2023-04-09T05:52:05;32.57;;;24.70;;
14883;SDS011;7534;50.762;7.000;2023-04-09T05:54:34;31.53;;;25.00;;
14883;SDS011;7534;50.762;7.000;2023-04-09T05:57:00;34.67;;;25.27;;
14883;SDS011;7534;50.762;7.000;2023-04-09T05:59:26;30.67;;;23.30;;
14883;SDS011;7534;50.762;7.000;2023-04-09T06:01:51;31.87;;;23.77;;
14883;SDS011;7534;50.762;7.000;2023-04-09T06:04:17;28.37;;;23.27;;
14883;SDS011;7534;50.762;7.000;2023-04-09T06:06:42;28.17;;;22.30;;
14883;SDS011;7534;50.762;7.000;2023-04-09T06:09:08;26.77;;;22.00;;
14883;SDS011;7534;50.762;7.000;2023-04-09T06:11:34;25.03;;;21.17;;
14883;SDS011;7534;50.762;7.000;2023-04-09T06:16:29;24.07;;;20.03;;
14883;SDS011;7534;50.762;7.000;2023-04-09T06:18:57;22.50;;;19.27;;
14883;SDS011;7534;50.762;7.000;2023-04-09T06:21:22;21.40;;;19.10;;
14883;SDS011;7534;50.762;7.000;2023-04-09T06:23:48;23.60;;;18.50;;
14883;SDS011;7534;50.762;7.000;2023-04-09T06:26:14;17.93;;;15.83;;
14883;SDS011;7534;50.762;7.000;2023-04-09T06:28:39;18.07;;;15.87;;
14883;SDS011;7534;50.762;7.000;2023-04-09T06:31:05;16.70;;;14.90;;
14883;SDS011;7534;50.762;7.000;2023-04-09T06:33:32;15.50;;;13.90;;
14883;SDS011;7534;50.762;7.000;2023-04-09T06:35:57;13.77;;;12.30;;
14883;SDS011;7534;50.762;7.000;2023-04-09T06:38:23;13.10;;;11.70;;
14883;SDS011;7534;50.762;7.000;2023-04-09T06:40:49;13.20;;;11.23;;
14883;SDS011;7534;50.762;7.000;2023-04-09T06:43:14;13.10;;;10.23;;
14883;SDS011;7534;50.762;7.000;2023-04-09T06:45:43;11.93;;;10.07;;
14883;SDS011;7534;50.762;7.000;2023-04-09T06:48:09;10.73;;;9.57;;
14883;SDS011;7534;50.762;7.000;2023-04-09T06:50:35;10.30;;;9.27;;
14883;SDS011;7534;50.762;7.000;2023-04-09T06:53:02;10.80;;;8.50;;
14883;SDS011;7534;50.762;7.000;2023-04-09T06:55:36;10.02;;;9.02;;
14883;SDS011;7534;50.762;7.000;2023-04-09T06:58:02;10.25;;;9.25;;
14883;SDS011;7534;50.762;7.000;2023-04-09T07:00:28;12.05;;;9.52;;
14883;SDS011;7534;50.762;7.000;2023-04-09T07:02:53;9.90;;;9.00;;
14883;SDS011;7534;50.762;7.000;2023-04-09T07:05:25;9.85;;;8.95;;
14883;SDS011;7534;50.762;7.000;2023-04-09T07:07:51;9.60;;;8.70;;
14883;SDS011;7534;50.762;7.000;2023-04-09T07:10:17;10.70;;;8.68;;
14883;SDS011;7534;50.762;7.000;2023-04-09T07:12:42;9.80;;;8.80;;
14883;SDS011;7534;50.762;7.000;2023-04-09T07:15:14;9.07;;;8.20;;
14883;SDS011;7534;50.762;7.000;2023-04-09T07:17:47;9.18;;;8.38;;
14883;SDS011;7534;50.762;7.000;2023-04-09T07:20:12;9.90;;;8.98;;
14883;SDS011;7534;50.762;7.000;2023-04-09T07:22:38;9.48;;;8.60;;
14883;SDS011;7534;50.762;7.000;2023-04-09T07:25:03;9.93;;;8.98;;
14883;SDS011;7534;50.762;7.000;2023-04-09T07:27:30;9.77;;;8.88;;
14883;SDS011;7534;50.762;7.000;2023-04-09T07:29:56;8.88;;;8.07;;
14883;SDS011;7534;50.762;7.000;2023-04-09T07:32:23;10.35;;;8.77;;
14883;SDS011;7534;50.762;7.000;2023-04-09T07:34:51;10.13;;;9.18;;
14883;SDS011;7534;50.762;7.000;2023-04-09T07:37:18;9.80;;;8.90;;
14883;SDS011;7534;50.762;7.000;2023-04-09T07:39:45;9.98;;;9.07;;
14883;SDS011;7534;50.762;7.000;2023-04-09T07:42:12;9.77;;;8.88;;
14883;SDS011;7534;50.762;7.000;2023-04-09T07:44:37;9.02;;;8.23;;
14883;SDS011;7534;50.762;7.000;2023-04-09T07:47:04;9.57;;;8.77;;
14883;SDS011;7534;50.762;7.000;2023-04-09T07:49:31;9.48;;;8.73;;
14883;SDS011;7534;50.762;7.000;2023-04-09T07:51:57;10.20;;;9.30;;
14883;SDS011;7534;50.762;7.000;2023-04-09T07:54:24;8.77;;;8.07;;
14883;SDS011;7534;50.762;7.000;2023-04-09T07:56:50;8.70;;;8.00;;
14883;SDS011;7534;50.762;7.000;2023-04-09T07:59:17;9.13;;;8.40;;
14883;SDS011;7534;50.762;7.000;2023-04-09T08:01:43;8.85;;;8.15;;
14883;SDS011;7534;50.762;7.000;2023-04-09T08:04:11;9.07;;;8.27;;
14883;SDS011;7534;50.762;7.000;2023-04-09T08:06:37;8.73;;;7.93;;
14883;SDS011;7534;50.762;7.000;2023-04-09T08:09:03;7.93;;;7.22;;
14883;SDS011;7534;50.762;7.000;2023-04-09T08:11:29;8.13;;;7.53;;
14883;SDS011;7534;50.762;7.000;2023-04-09T08:13:56;8.85;;;8.00;;
14883;SDS011;7534;50.762;7.000;2023-04-09T08:16:22;8.23;;;7.53;;
14883;SDS011;7534;50.762;7.000;2023-04-09T08:18:51;8.50;;;7.80;;
14883;SDS011;7534;50.762;7.000;2023-04-09T08:21:17;8.82;;;8.07;;
14883;SDS011;7534;50.762;7.000;2023-04-09T08:23:43;8.32;;;7.63;;
14883;SDS011;7534;50.762;7.000;2023-04-09T08:26:09;8.18;;;7.40;;
14883;SDS011;7534;50.762;7.000;2023-04-09T08:28:37;7.85;;;6.80;;
14883;SDS011;7534;50.762;7.000;2023-04-09T08:31:04;7.00;;;6.43;;
14883;SDS011;7534;50.762;7.000;2023-04-09T08:33:30;7.07;;;6.47;;
14883;SDS011;7534;50.762;7.000;2023-04-09T08:35:55;10.07;;;8.20;;
14883;SDS011;7534;50.762;7.000;2023-04-09T08:38:21;18.15;;;11.30;;
14883;SDS011;7534;50.762;7.000;2023-04-09T08:40:48;7.07;;;6.47;;
14883;SDS011;7534;50.762;7.000;2023-04-09T08:43:14;12.48;;;8.18;;
14883;SDS011;7534;50.762;7.000;2023-04-09T08:45:40;6.20;;;5.60;;
14883;SDS011;7534;50.762;7.000;2023-04-09T08:48:09;5.80;;;4.85;;
14883;SDS011;7534;50.762;7.000;2023-04-09T08:50:37;5.50;;;5.00;;
14883;SDS011;7534;50.762;7.000;2023-04-09T08:53:04;5.15;;;4.65;;
14883;SDS011;7534;50.762;7.000;2023-04-09T08:55:32;5.40;;;4.90;;
14883;SDS011;7534;50.762;7.000;2023-04-09T08:58:02;4.80;;;4.40;;
14883;SDS011;7534;50.762;7.000;2023-04-09T09:00:31;5.85;;;5.28;;
14883;SDS011;7534;50.762;7.000;2023-04-09T09:03:02;4.95;;;4.55;;
14883;SDS011;7534;50.762;7.000;2023-04-09T09:05:37;5.43;;;4.93;;
14883;SDS011;7534;50.762;7.000;2023-04-09T09:08:09;4.90;;;4.50;;
14883;SDS011;7534;50.762;7.000;2023-04-09T09:10:43;5.13;;;4.70;;
14883;SDS011;7534;50.762;7.000;2023-04-09T09:18:42;5.32;;;4.93;;
14883;SDS011;7534;50.762;7.000;2023-04-09T09:21:12;5.85;;;5.35;;
14883;SDS011;7534;50.762;7.000;2023-04-09T09:23:43;5.82;;;5.32;;
14883;SDS011;7534;50.762;7.000;2023-04-09T09:26:13;5.40;;;4.90;;
14883;SDS011;7534;50.762;7.000;2023-04-09T09:28:47;5.53;;;5.03;;
14883;SDS011;7534;50.762;7.000;2023-04-09T09:31:15;5.53;;;5.03;;
14883;SDS011;7534;50.762;7.000;2023-04-09T09:33:43;5.32;;;4.82;;
14883;SDS011;7534;50.762;7.000;2023-04-09T09:36:11;5.78;;;5.28;;
14883;SDS011;7534;50.762;7.000;2023-04-09T09:38:50;5.88;;;5.38;;
14883;SDS011;7534;50.762;7.000;2023-04-09T09:41:19;5.95;;;5.43;;
14883;SDS011;7534;50.762;7.000;2023-04-09T09:43:46;5.13;;;4.72;;
14883;SDS011;7534;50.762;7.000;2023-04-09T09:46:12;5.05;;;4.65;;
14883;SDS011;7534;50.762;7.000;2023-04-09T09:48:38;5.90;;;5.32;;
14883;SDS011;7534;50.762;7.000;2023-04-09T09:51:07;5.70;;;5.20;;
14883;SDS011;7534;50.762;7.000;2023-04-09T09:53:35;5.55;;;5.15;;
14883;SDS011;7534;50.762;7.000;2023-04-09T09:56:06;5.30;;;4.80;;
14883;SDS011;7534;50.762;7.000;2023-04-09T09:58:51;6.03;;;5.45;;
14883;SDS011;7534;50.762;7.000;2023-04-09T10:01:43;9.93;;;4.95;;
14883;SDS011;7534;50.762;7.000;2023-04-09T10:04:13;5.25;;;4.80;;
14883;SDS011;7534;50.762;7.000;2023-04-09T10:06:43;5.63;;;5.13;;
14883;SDS011;7534;50.762;7.000;2023-04-09T10:09:10;5.57;;;5.07;;
14883;SDS011;7534;50.762;7.000;2023-04-09T10:11:38;4.80;;;4.40;;
14883;SDS011;7534;50.762;7.000;2023-04-09T10:14:08;5.38;;;4.97;;
14883;SDS011;7534;50.762;7.000;2023-04-09T10:16:34;5.22;;;4.82;;
14883;SDS011;7534;50.762;7.000;2023-04-09T10:19:00;5.35;;;4.85;;
14883;SDS011;7534;50.762;7.000;2023-04-09T10:21:29;4.97;;;4.50;;
14883;SDS011;7534;50.762;7.000;2023-04-09T10:24:13;5.35;;;4.85;;
14883;SDS011;7534;50.762;7.000;2023-04-09T10:26:52;6.05;;;5.45;;
14883;SDS011;7534;50.762;7.000;2023-04-09T10:29:25;5.57;;;5.07;;
14883;SDS011;7534;50.762;7.000;2023-04-09T10:31:54;5.97;;;5.32;;
14883;SDS011;7534;50.762;7.000;2023-04-09T10:34:36;5.55;;;5.05;;
14883;SDS011;7534;50.762;7.000;2023-04-09T10:37:07;5.70;;;5.20;;
14883;SDS011;7534;50.762;7.000;2023-04-09T10:39:39;6.07;;;5.57;;
14883;SDS011;7534;50.762;7.000;2023-04-09T10:42:14;5.95;;;5.45;;
14883;SDS011;7534;50.762;7.000;2023-04-09T10:44:46;5.65;;;5.15;;
14883;SDS011;7534;50.762;7.000;2023-04-09T10:47:39;5.38;;;4.88;;
14883;SDS011;7534;50.762;7.000;2023-04-09T10:52:52;6.10;;;5.50;;
14883;SDS011;7534;50.762;7.000;2023-04-09T10:55:34;6.15;;;5.55;;
14883;SDS011;7534;50.762;7.000;2023-04-09T10:58:03;5.90;;;5.30;;
14883;SDS011;7534;50.762;7.000;2023-04-09T11:00:31;5.60;;;5.10;;
14883;SDS011;7534;50.762;7.000;2023-04-09T11:05:39;5.07;;;4.57;;
14883;SDS011;7534;50.762;7.000;2023-04-09T11:08:08;5.25;;;4.60;;
14883;SDS011;7534;50.762;7.000;2023-04-09T11:10:42;5.65;;;5.15;;
14883;SDS011;7534;50.762;7.000;2023-04-09T11:13:15;5.95;;;5.35;;
14883;SDS011;7534;50.762;7.000;2023-04-09T11:15:44;5.70;;;5.20;;
14883;SDS011;7534;50.762;7.000;2023-04-09T11:18:14;6.03;;;5.53;;
14883;SDS011;7534;50.762;7.000;2023-04-09T11:20:48;6.30;;;5.70;;
14883;SDS011;7534;50.762;7.000;2023-04-09T11:23:19;5.93;;;5.38;;
14883;SDS011;7534;50.762;7.000;2023-04-09T11:25:49;5.80;;;5.30;;
14883;SDS011;7534;50.762;7.000;2023-04-09T11:28:15;5.88;;;5.38;;
14883;SDS011;7534;50.762;7.000;2023-04-09T11:30:41;5.85;;;5.35;;
14883;SDS011;7534;50.762;7.000;2023-04-09T11:33:07;6.13;;;5.57;;
14883;SDS011;7534;50.762;7.000;2023-04-09T11:35:37;5.75;;;5.22;;
14883;SDS011;7534;50.762;7.000;2023-04-09T11:40:43;6.35;;;5.85;;
14883;SDS011;7534;50.762;7.000;2023-04-09T11:43:23;6.50;;;5.90;;
14883;SDS011;7534;50.762;7.000;2023-04-09T11:45:48;6.22;;;5.63;;
14883;SDS011;7534;50.762;7.000;2023-04-09T11:48:16;6.53;;;5.93;;
14883;SDS011;7534;50.762;7.000;2023-04-09T11:50:42;6.45;;;5.85;;
14883;SDS011;7534;50.762;7.000;2023-04-09T11:53:19;7.20;;;6.10;;
14883;SDS011;7534;50.762;7.000;2023-04-09T11:55:49;5.95;;;5.35;;
14883;SDS011;7534;50.762;7.000;2023-04-09T11:58:17;6.32;;;5.72;;
14883;SDS011;7534;50.762;7.000;2023-04-09T12:00:46;6.47;;;5.88;;
14883;SDS011;7534;50.762;7.000;2023-04-09T12:03:12;7.35;;;6.68;;
14883;SDS011;7534;50.762;7.000;2023-04-09T12:05:44;5.63;;;5.13;;
14883;SDS011;7534;50.762;7.000;2023-04-09T12:08:23;6.50;;;5.95;;
14883;SDS011;7534;50.762;7.000;2023-04-09T12:10:49;6.25;;;5.72;;
14883;SDS011;7534;50.762;7.000;2023-04-09T12:13:16;6.18;;;5.57;;
14883;SDS011;7534;50.762;7.000;2023-04-09T12:15:44;7.05;;;5.63;;
14883;SDS011;7534;50.762;7.000;2023-04-09T12:18:16;13.02;;;7.55;;
14883;SDS011;7534;50.762;7.000;2023-04-09T12:20:42;23.50;;;11.13;;
14883;SDS011;7534;50.762;7.000;2023-04-09T12:23:10;17.75;;;8.55;;
14883;SDS011;7534;50.762;7.000;2023-04-09T12:25:38;15.90;;;9.60;;
14883;SDS011;7534;50.762;7.000;2023-04-09T12:28:09;7.57;;;6.28;;
14883;SDS011;7534;50.762;7.000;2023-04-09T12:30:43;6.13;;;5.53;;
14883;SDS011;7534;50.762;7.000;2023-04-09T12:33:09;8.68;;;6.80;;
14883;SDS011;7534;50.762;7.000;2023-04-09T12:35:34;6.13;;;5.57;;
14883;SDS011;7534;50.762;7.000;2023-04-09T12:38:02;6.38;;;5.78;;
14883;SDS011;7534;50.762;7.000;2023-04-09T12:40:37;6.55;;;5.85;;
14883;SDS011;7534;50.762;7.000;2023-04-09T12:45:32;6.22;;;5.63;;
14883;SDS011;7534;50.762;7.000;2023-04-09T12:47:57;6.40;;;5.50;;
14883;SDS011;7534;50.762;7.000;2023-04-09T12:50:23;5.65;;;5.15;;
14883;SDS011;7534;50.762;7.000;2023-04-09T12:52:49;5.55;;;5.05;;
14883;SDS011;7534;50.762;7.000;2023-04-09T12:55:15;5.95;;;5.35;;
14883;SDS011;7534;50.762;7.000;2023-04-09T12:57:42;5.03;;;4.63;;
14883;SDS011;7534;50.762;7.000;2023-04-09T13:00:12;5.82;;;4.93;;
14883;SDS011;7534;50.762;7.000;2023-04-09T13:02:38;6.05;;;5.45;;
14883;SDS011;7534;50.762;7.000;2023-04-09T13:05:04;9.70;;;5.95;;
14883;SDS011;7534;50.762;7.000;2023-04-09T13:07:30;7.10;;;5.20;;
14883;SDS011;7534;50.762;7.000;2023-04-09T13:09:56;9.00;;;5.65;;
14883;SDS011;7534;50.762;7.000;2023-04-09T13:12:22;6.28;;;5.75;;
14883;SDS011;7534;50.762;7.000;2023-04-09T13:14:51;5.60;;;5.10;;
14883;SDS011;7534;50.762;7.000;2023-04-09T13:17:19;5.35;;;4.85;;
14883;SDS011;7534;50.762;7.000;2023-04-09T13:22:16;5.07;;;4.57;;
14883;SDS011;7534;50.762;7.000;2023-04-09T13:24:42;5.35;;;4.85;;
14883;SDS011;7534;50.762;7.000;2023-04-09T13:27:09;5.75;;;5.25;;
14883;SDS011;7534;50.762;7.000;2023-04-09T13:29:35;5.30;;;4.80;;
14883;SDS011;7534;50.762;7.000;2023-04-09T13:32:00;5.35;;;4.85;;
14883;SDS011;7534;50.762;7.000;2023-04-09T13:34:32;5.13;;;4.63;;
14883;SDS011;7534;50.762;7.000;2023-04-09T13:36:59;5.47;;;4.97;;
14883;SDS011;7534;50.762;7.000;2023-04-09T13:39:25;5.38;;;4.40;;
14883;SDS011;7534;50.762;7.000;2023-04-09T13:41:51;5.00;;;4.60;;
14883;SDS011;7534;50.762;7.000;2023-04-09T13:44:19;4.43;;;4.03;;
14883;SDS011;7534;50.762;7.000;2023-04-09T13:46:52;4.18;;;3.80;;
14883;SDS011;7534;50.762;7.000;2023-04-09T13:49:24;4.35;;;4.05;;
14883;SDS011;7534;50.762;7.000;2023-04-09T13:51:52;4.20;;;3.80;;
14883;SDS011;7534;50.762;7.000;2023-04-09T13:54:19;4.80;;;4.40;;
14883;SDS011;7534;50.762;7.000;2023-04-09T13:56:45;4.85;;;4.43;;
14883;SDS011;7534;50.762;7.000;2023-04-09T13:59:11;5.35;;;4.85;;
14883;SDS011;7534;50.762;7.000;2023-04-09T14:01:36;5.70;;;5.20;;
14883;SDS011;7534;50.762;7.000;2023-04-09T14:04:02;5.72;;;5.13;;
14883;SDS011;7534;50.762;7.000;2023-04-09T14:06:29;5.07;;;4.50;;
14883;SDS011;7534;50.762;7.000;2023-04-09T14:08:55;4.80;;;4.40;;
14883;SDS011;7534;50.762;7.000;2023-04-09T14:11:21;5.13;;;4.70;;
14883;SDS011;7534;50.762;7.000;2023-04-09T14:13:47;4.97;;;4.55;;
14883;SDS011;7534;50.762;7.000;2023-04-09T14:16:13;5.32;;;4.93;;
14883;SDS011;7534;50.762;7.000;2023-04-09T14:18:39;5.38;;;4.68;;
14883;SDS011;7534;50.762;7.000;2023-04-09T14:21:06;5.10;;;4.70;;
14883;SDS011;7534;50.762;7.000;2023-04-09T14:23:32;5.97;;;4.70;;
14883;SDS011;7534;50.762;7.000;2023-04-09T14:25:58;5.15;;;4.65;;
14883;SDS011;7534;50.762;7.000;2023-04-09T14:28:28;4.60;;;4.20;;
14883;SDS011;7534;50.762;7.000;2023-04-09T14:30:57;4.60;;;4.20;;
14883;SDS011;7534;50.762;7.000;2023-04-09T14:33:24;4.90;;;4.45;;
14883;SDS011;7534;50.762;7.000;2023-04-09T14:35:51;4.53;;;4.13;;
14883;SDS011;7534;50.762;7.000;2023-04-09T14:38:18;4.40;;;4.00;;
14883;SDS011;7534;50.762;7.000;2023-04-09T14:40:44;4.80;;;4.40;;
14883;SDS011;7534;50.762;7.000;2023-04-09T14:43:10;4.03;;;3.65;;
14883;SDS011;7534;50.762;7.000;2023-04-09T14:45:35;4.70;;;4.30;;
14883;SDS011;7534;50.762;7.000;2023-04-09T14:48:01;4.88;;;4.47;;
14883;SDS011;7534;50.762;7.000;2023-04-09T14:50:29;4.75;;;4.25;;
14883;SDS011;7534;50.762;7.000;2023-04-09T14:52:56;5.40;;;4.90;;
14883;SDS011;7534;50.762;7.000;2023-04-09T14:55:23;4.78;;;4.38;;
14883;SDS011;7534;50.762;7.000;2023-04-09T14:57:49;4.78;;;4.38;;
14883;SDS011;7534;50.762;7.000;2023-04-09T15:00:15;4.40;;;3.95;;
14883;SDS011;7534;50.762;7.000;2023-04-09T15:02:41;5.90;;;4.97;;
14883;SDS011;7534;50.762;7.000;2023-04-09T15:05:08;4.45;;;4.05;;
14883;SDS011;7534;50.762;7.000;2023-04-09T15:07:34;4.40;;;4.00;;
14883;SDS011;7534;50.762;7.000;2023-04-09T15:10:00;5.20;;;4.43;;
14883;SDS011;7534;50.762;7.000;2023-04-09T15:12:29;4.70;;;4.30;;
14883;SDS011;7534;50.762;7.000;2023-04-09T15:14:55;4.22;;;3.83;;
14883;SDS011;7534;50.762;7.000;2023-04-09T15:17:21;4.43;;;4.03;;